ADDS METAR Data INFO
IDs: Format: Raw Decoded Include TAF

Data at: 0142 UTC 26 Feb 2018

K24A 260135Z AUTO 00000KT 10SM -RA SCT070 OVC100 13/07 A3015 RMK AO2 T01290069
K24A 260115Z AUTO 14006KT 10SM SCT050 BKN060 OVC085 13/07 A3014 RMK AO2 T01300069
K24A 260055Z AUTO 14005KT 10SM OVC070 14/06 A3015 RMK AO2 T01420059
K24A 260035Z AUTO 21005KT 10SM -RA SCT060 BKN070 OVC090 13/07 A3015 RMK AO2 T01340066
K24A 260015Z AUTO 32005KT 10SM SCT080 OVC100 14/06 A3014 RMK AO2 T01360063
K24A 252355Z AUTO 25003KT 10SM SCT070 OVC100 14/05 A3013 RMK AO2 T01420050 10157 20139 401920126
K24A 252335Z AUTO 14008KT 10SM SCT070 OVC100 15/04 A3010 RMK AO2 T01520045
K24A 252315Z AUTO 19005KT 10SM OVC100 14/05 A3011 RMK AO2 T01440053
K24A 252255Z AUTO 30009KT 10SM OVC110 14/06 A3010 RMK AO2 T01410056
K24A 252235Z AUTO 07005KT 10SM OVC110 14/05 A3007 RMK AO2 T01440049
K24A 252215Z AUTO 13008KT 10SM OVC095 15/05 A3005 RMK AO2 T01460047
K24A 252155Z AUTO 13008KT 10SM OVC095 15/05 A3007 RMK AO2 T01470047
K24A 252135Z AUTO 09004KT 10SM OVC095 14/05 A3007 RMK AO2 T01440055
K24A 252115Z AUTO 12007KT 10SM SCT070 OVC085 15/06 A3007 RMK AO2 T01460057
K24A 252055Z AUTO 14009KT 10SM SCT050 SCT070 OVC085 15/05 A3008 RMK AO2 T01490050
K24A 252035Z AUTO 13009KT 10SM SCT055 SCT065 OVC085 15/06 A3009 RMK AO2 T01480056
K24A 252015Z AUTO 19003KT 10SM SCT065 BKN075 OVC085 15/05 A3011 RMK AO2 T01520048
K24A 251955Z AUTO 25005KT 10SM SCT065 BKN075 OVC085 15/04 A3012 RMK AO2 T01540038
K24A 251935Z AUTO 26008KT 220V340 10SM SCT055 BKN085 OVC090 15/06 A3014 RMK AO2 T01510056
K24A 251915Z AUTO 31005KT 10SM SCT055 SCT070 OVC080 15/06 A3014 RMK AO2 T01490060
K24A 251855Z AUTO 25003KT 10SM OVC085 15/08 A3014 RMK AO2 T01480080
K24A 251835Z AUTO 00000KT 10SM SCT060 SCT075 OVC095 15/07 A3015 RMK AO2 T01460073
K24A 251815Z AUTO 31003KT 10SM SCT060 SCT075 OVC085 14/10 A3015 RMK AO2 T01410096
K24A 251755Z AUTO 00000KT 10SM SCT060 OVC085 14/08 A3013 RMK AO2 T01440084 10148 20126
K24A 251735Z AUTO 15006KT 10SM BKN085 OVC090 14/08 A3014 RMK AO2 T01400085
K24A 251715Z AUTO 34005KT 10SM -RA SCT049 BKN065 OVC085 14/08 A3015 RMK AO2 T01350078
K24A 251655Z AUTO 22005KT 10SM SCT065 SCT075 OVC085 13/11 A3017 RMK AO2 T01310105
K24A 251635Z AUTO 15006KT 10SM OVC085 13/10 A3014 RMK AO2 T01340097
K24A 251615Z AUTO 06003KT 10SM SCT060 OVC075 14/08 A3015 RMK AO2 T01360085
K24A 251555Z AUTO 31004KT 10SM -RA SCT060 BKN070 OVC080 14/08 A3018 RMK AO2 T01370076
K24A 251535Z AUTO 00000KT 10SM -RA SCT070 OVC080 13/11 A3017 RMK AO2 T01270106
K24A 251515Z AUTO 00000KT 10SM OVC090 13/10 A3015 RMK AO2 T01290105
K24A 251455Z AUTO 31003KT 10SM -RA BKN075 OVC085 14/08 A3014 RMK AO2 T01360076
K24A 251435Z AUTO 25004KT 10SM -RA SCT003 BKN060 OVC075 13/10 A3015 RMK AO2 T01270097
K24A 251415Z AUTO 32014G21KT 280V360 3SM -RA BR SCT003 BKN010 OVC050 13/12 A3016 RMK AO2 T01310115
K24A 251355Z AUTO 36005KT 5SM RA BR SCT015 BKN026 OVC060 13/13 A3013 RMK AO2 T01350129
K24A 251335Z AUTO 00000KT 10SM -RA SCT028 BKN048 OVC085 14/12 A3011 RMK AO2 T01410122
K24A 251315Z AUTO 27003KT 10SM -RA SCT027 BKN039 OVC048 14/12 A3010 RMK AO2 T01440119
K24A 251255Z AUTO 26004KT 10SM -RA SCT029 BKN050 OVC060 14/12 A3009 RMK AO2 T01410123
K24A 251235Z AUTO 25005KT 10SM -RA SCT019 BKN036 OVC065 14/12 A3008 RMK AO2 T01430122
K24A 251215Z AUTO 26005KT 3 1/2SM RA BR SCT022 BKN045 OVC050 14/13 A3008 RMK AO2 T01390130
K24A 251155Z AUTO 21006KT 7SM -RA SCT033 BKN047 OVC060 15/12 A3004 RMK AO2 T01470125 10184 20146
K24A 251135Z AUTO 20007KT 10SM BKN036 OVC046 17/11 A3004 RMK AO2 T01690111
K24A 251115Z AUTO 21004KT 10SM BKN040 OVC048 17/11 A3004 RMK AO2 T01710108
K24A 251055Z AUTO 22009KT 10SM BKN038 OVC046 17/11 A3004 RMK AO2 T01710107
K24A 251035Z AUTO 21008KT 10SM OVC038 17/11 A3004 RMK AO2 T01710106
K24A 251015Z AUTO 23007G19KT 190V260 10SM BKN040 OVC050 17/10 A3005 RMK AO2 T01740104
K24A 250955Z AUTO 25008KT 210V310 10SM BKN042 OVC050 17/10 A3005 RMK AO2 T01730105
K24A 250935Z AUTO 20012KT 10SM BKN044 OVC050 17/11 A3005 RMK AO2 T01720107
K24A 250915Z AUTO 21010G16KT 170V250 10SM SCT042 BKN050 OVC090 17/11 A3005 RMK AO2 T01720108
K24A 250855Z AUTO 24009KT 200V260 10SM BKN041 BKN048 OVC070 17/11 A3005 RMK AO2 T01730110
K24A 250835Z AUTO 21008G15KT 190V250 10SM SCT041 BKN048 OVC065 17/11 A3005 RMK AO2 T01740111
K24A 250815Z AUTO 21009KT 190V250 10SM SCT044 BKN050 OVC055 18/11 A3005 RMK AO2 T01750111
K24A 250750Z AUTO 20014G19KT 10SM BKN048 OVC055 18/11 A3005 RMK AO2 T01770110
K24A 250735Z AUTO 19012G22KT 10SM SCT046 BKN065 18/11 A3006 RMK AO2 T01770110
K24A 250715Z AUTO 21011G24KT 170V230 10SM BKN050 BKN070 BKN085 18/11 A3007 RMK AO2 T01790109
K24A 250655Z AUTO 18019G28KT 10SM BKN055 BKN070 OVC085 18/11 A3005 RMK AO2 T01790112
K24A 250635Z AUTO 19013G22KT 160V220 10SM SCT045 BKN055 OVC070 18/12 A3007 RMK AO2 T01810119
K24A 250615Z AUTO 20013G23KT 10SM SCT032 BKN065 OVC075 18/12 A3008 RMK AO2 T01840119
K24A 250555Z AUTO 19016G24KT 10SM BKN034 OVC065 18/12 A3007 RMK AO2 T01820118 10192 20181
K24A 250535Z AUTO 19008G19KT 10SM BKN034 BKN046 BKN080 18/12 A3008 RMK AO2 T01840117
K24A 250515Z AUTO 22009G22KT 190V260 10SM BKN036 OVC049 19/12 A3009 RMK AO2 T01870117
K24A 250455Z AUTO 18007KT 150V220 10SM BKN036 OVC048 19/12 A3009 RMK AO2 LTG DSNT NW T01860116
K24A 250435Z AUTO 19009KT 10SM BKN037 BKN060 OVC090 19/12 A3009 RMK AO2 T01870115
K24A 250415Z AUTO 17011G18KT 130V210 10SM BKN037 BKN046 OVC090 19/12 A3009 RMK AO2 LTG DSNT NW T01870115
K24A 250355Z AUTO 17007G18KT 10SM BKN037 OVC050 19/12 A3010 RMK AO2 T01880115
K24A 250335Z AUTO 15007KT 110V180 10SM OVC037 19/11 A3010 RMK AO2 LTG DSNT NW T01880114
K24A 250315Z AUTO 19006KT 10SM OVC037 19/11 A3011 RMK AO2 T01880114
K24A 250255Z AUTO 16010KT 10SM OVC039 19/11 A3011 RMK AO2 T01880114
K24A 250235Z AUTO 18009KT 10SM BKN043 OVC070 19/11 A3011 RMK AO2 T01880113
K24A 250215Z AUTO 15007G17KT 120V180 10SM SCT041 SCT047 OVC070 19/11 A3011 RMK AO2 T01860111
K24A 250155Z AUTO 18010G18KT 150V210 10SM SCT042 BKN048 OVC050 19/11 A3010 RMK AO2 T01870111
K24A 250135Z AUTO 15006KT 10SM BKN042 OVC050 19/11 A3011 RMK AO2 T01850109
K24A 250115Z AUTO 15009KT 10SM BKN044 BKN049 OVC060 19/11 A3010 RMK AO2 T01880108
K24A 250055Z AUTO 14005KT 10SM OVC044 19/11 A3011 RMK AO2 T01880107
K24A 250035Z AUTO 15003KT 10SM OVC044 19/11 A3012 RMK AO2 LTG DSNT NW T01880106
K24A 250015Z AUTO 15006KT 10SM BKN046 OVC065 19/11 A3011 RMK AO2 LTG DSNT NW T01900107
K24A 242355Z AUTO 16009KT 10SM BKN042 BKN048 OVC065 19/11 A3011 RMK AO2 LTG DSNT NW T01920108 10225 20191 402250132
K24A 242335Z AUTO 16006KT 10SM OVC042 19/11 A3011 RMK AO2 LTG DSNT NW T01920108
K24A 242315Z AUTO 15007KT 10SM BKN044 OVC050 19/11 A3010 RMK AO2 LTG DSNT NW T01940105
K24A 242255Z AUTO 17011G15KT 10SM BKN046 BKN060 OVC070 20/10 A3011 RMK AO2 T01970104
K24A 242235Z AUTO 17010KT 10SM SCT043 BKN050 OVC070 20/10 A3011 RMK AO2 T01970103
K24A 242215Z AUTO 21009G16KT 10SM BKN048 BKN060 20/10 A3011 RMK AO2 T01990102
K24A 242155Z AUTO 18011KT 10SM SCT046 BKN060 21/10 A3010 RMK AO2 LTG DSNT NW T02060099
K24A 242135Z AUTO 20008KT 170V230 10SM SCT046 BKN060 BKN080 20/10 A3011 RMK AO2 LTG DSNT NW T02010102
K24A 242115Z AUTO 21009G19KT 180V270 10SM SCT046 BKN060 OVC080 20/10 A3012 RMK AO2 LTG DSNT NW T02040101
K24A 242055Z AUTO 20010G16KT 160V220 10SM SCT043 OVC050 20/10 A3012 RMK AO2 LTG DSNT NW T01980101
K24A 242035Z AUTO 18004KT 10SM OVC050 20/10 A3013 RMK AO2 LTG DSNT NW T01960103
K24A 242015Z AUTO 21006G18KT 10SM OVC048 19/10 A3013 RMK AO2 LTG DSNT NW T01950100
K24A 241955Z AUTO 20011G19KT 10SM BKN050 BKN070 BKN085 20/10 A3013 RMK AO2 LTG DSNT NW T02000099
K24A 241935Z AUTO 22014G17KT 10SM SCT048 SCT060 SCT085 21/10 A3013 RMK AO2 LTG DSNT NW T02140102
K24A 241915Z AUTO 22009G18KT 10SM SCT050 SCT075 22/10 A3014 RMK AO2 LTG DSNT NW T02160101
K24A 241855Z AUTO 21012G22KT 10SM SCT050 SCT065 BKN075 20/10 A3015 RMK AO2 LTG DSNT NW T02020097
K24A 241835Z AUTO 21011G17KT 10SM SCT048 BKN075 OVC080 21/10 A3016 RMK AO2 T02070100
K24A 241815Z AUTO 21011G19KT 10SM SCT075 BKN090 21/09 A3018 RMK AO2 LTG DSNT NW T02070094
K24A 241755Z AUTO 22010G19KT 170V290 10SM SCT075 BKN090 21/10 A3018 RMK AO2 LTG DSNT NW T02080096 10212 20137
K24A 241735Z AUTO 21013G17KT 10SM SCT038 SCT075 BKN090 20/10 A3020 RMK AO2 LTG DSNT NW T02040104
K24A 241715Z AUTO 20008KT 10SM SCT036 BKN070 BKN100 19/11 A3021 RMK AO2 LTG DSNT NW T01940112
K24A 241655Z AUTO 23006KT 10SM BKN036 BKN070 OVC100 19/11 A3022 RMK AO2 T01930110
K24A 241635Z AUTO 22008KT 190V270 10SM BKN034 OVC070 19/11 A3024 RMK AO2 LTG DSNT NW T01900113
K24A 241615Z AUTO 24008KT 190V290 10SM BKN032 OVC070 19/12 A3024 RMK AO2 T01870117
K24A 241555Z AUTO 22006KT 10SM BKN032 OVC070 18/12 A3024 RMK AO2 T01820123
K24A 241535Z AUTO 20006KT 10SM BKN030 BKN036 OVC070 18/13 A3024 RMK AO2 T01780127
K24A 241515Z AUTO 21006KT 10SM BKN028 BKN033 OVC055 18/13 A3024 RMK AO2 LTG DSNT NW T01780129
K24A 241455Z AUTO 00000KT 10SM SCT028 OVC038 17/13 A3025 RMK AO2 T01720128
K24A 241435Z AUTO 00000KT 10SM SCT028 SCT034 OVC040 16/14 A3025 RMK AO2 T01620143
K24A 241415Z AUTO 00000KT 10SM SCT032 BKN047 OVC110 16/14 A3025 RMK AO2 T01560142
K24A 241355Z AUTO 00000KT 10SM SCT020 BKN031 OVC110 16/14 A3025 RMK AO2 T01560135